»·PEaware :: N645PC KSDF-KGSO

N645PC :: KSDF-KGSO

FLIGHT INFORMATION

Flight Status: Arrived
Operator: Privately registered:
United States
More flights under this callsign
Pilot: Armando C. (16967)
Aircraft: PILATUS PC-12 EAGLE
(PC12)
More flights by this aircraft type
Origin: KSDF Louisville Intl-Standiford
United States
Destination: KGSO Piedmont Triad Intl
United States
More flights between these airports :: More routes between these airports
Route: OTONE
File this flight plan on PilotEdge
Remarks:
Altitude:
(Current/Filed)
26,000ft
Speed:
(Current/Filed)
265kts
Departed: 23-Sep-18 07:27 AM
Arrived: 23-Sep-18 08:55 AM
Distance/Time
Traveled:
304nm/1:28
Distance/Time
To Go:
Arrived

Flight Plot

Page will automatically refresh every two minutes.

Flight plan parsing failed; only flown route is shown


Map Options




Map Legend


Flown Route
Filed Route
Departure Airport
Arrival Airport
Navaid (VOR, NDB)
Fix

Horizontal Profiles

Position Reports

Time Latitude Longitude Heading Altitude Ground
Speed
23-Sep-18 07:24 38.184521 -85.740026 57 476ft 0kts
23-Sep-18 07:25 38.185773 -85.736619 60 483ft 18kts
23-Sep-18 07:26 38.183509 -85.731940 126 489ft 24kts
23-Sep-18 07:27 38.175870 -85.728879 140 478ft 17kts
23-Sep-18 07:28 38.175791 -85.727391 349 478ft 0kts
23-Sep-18 07:29 38.199978 -85.737399 338 1733ft 136kts
23-Sep-18 07:30 38.234691 -85.750275 352 3862ft 159kts
23-Sep-18 07:31 38.266785 -85.737789 48 5082ft 184kts
23-Sep-18 07:32 38.292091 -85.691114 53 7310ft 174kts
23-Sep-18 07:33 38.301049 -85.651020 121 8743ft 184kts
23-Sep-18 07:34 38.272920 -85.619108 143 10286ft 184kts
23-Sep-18 07:35 38.240793 -85.586582 144 11899ft 185kts
23-Sep-18 07:36 38.201413 -85.546611 145 13689ft 190kts
23-Sep-18 07:37 38.160500 -85.505148 146 15393ft 195kts
23-Sep-18 07:38 38.118811 -85.462957 147 16987ft 200kts
23-Sep-18 07:39 38.088954 -85.416058 106 18299ft 220kts
23-Sep-18 07:40 38.080043 -85.352061 103 19486ft 226kts
23-Sep-18 07:41 38.070450 -85.281019 104 20683ft 231kts
23-Sep-18 07:42 38.060399 -85.207188 105 21821ft 237kts
23-Sep-18 07:43 38.049509 -85.127695 104 22921ft 243kts
23-Sep-18 07:44 38.038753 -85.043410 102 23986ft 250kts
23-Sep-18 07:45 38.027937 -84.956388 102 24996ft 256kts
23-Sep-18 07:46 38.016822 -84.867076 102 25958ft 260kts
23-Sep-18 07:47 38.004896 -84.772954 102 26171ft 279kts
23-Sep-18 07:48 37.992721 -84.676979 102 26175ft 278kts
23-Sep-18 07:49 37.980442 -84.580777 102 26175ft 283kts
23-Sep-18 07:50 37.967860 -84.482870 102 26175ft 284kts
23-Sep-18 07:51 37.947937 -84.386936 108 26182ft 283kts
23-Sep-18 07:52 37.927359 -84.291996 109 26183ft 282kts
23-Sep-18 07:53 37.906542 -84.196304 109 26188ft 282kts
23-Sep-18 07:54 37.885910 -84.101771 109 26192ft 282kts
23-Sep-18 07:55 37.864945 -84.006180 109 26192ft 282kts
23-Sep-18 07:56 37.843927 -83.910693 109 26193ft 283kts
23-Sep-18 07:57 37.822809 -83.815173 109 26193ft 283kts
23-Sep-18 07:58 37.801524 -83.719353 109 26193ft 283kts
23-Sep-18 07:59 37.780273 -83.624023 109 26190ft 283kts
23-Sep-18 08:00 37.758788 -83.528108 109 26187ft 284kts
23-Sep-18 08:01 37.737346 -83.432750 109 26187ft 284kts
23-Sep-18 08:02 37.715806 -83.337307 110 26182ft 284kts
23-Sep-18 08:03 37.694217 -83.242108 110 26181ft 283kts
23-Sep-18 08:04 37.672494 -83.146701 110 26182ft 282kts
23-Sep-18 08:05 37.654442 -83.067717 110 26182ft 282kts
23-Sep-18 08:06 37.629020 -82.956713 110 26183ft 283kts
23-Sep-18 08:07 37.610728 -82.877271 111 26184ft 284kts
23-Sep-18 08:08 37.588758 -82.782289 112 26185ft 285kts
23-Sep-18 08:09 37.562780 -82.670697 112 26185ft 285kts
23-Sep-18 08:10 37.544242 -82.591245 112 26186ft 286kts
23-Sep-18 08:11 37.518089 -82.479554 112 26186ft 286kts
23-Sep-18 08:12 37.499323 -82.399731 112 26187ft 286kts
23-Sep-18 08:13 37.477145 -82.305713 112 26180ft 285kts
23-Sep-18 08:14 37.454972 -82.212136 112 26202ft 284kts
23-Sep-18 08:15 37.432735 -82.118897 112 26233ft 283kts
23-Sep-18 08:16 37.410223 -82.024433 112 26246ft 284kts
23-Sep-18 08:17 37.387740 -81.930591 112 26246ft 284kts
23-Sep-18 08:18 37.365162 -81.836788 112 26247ft 285kts
23-Sep-18 08:19 37.342404 -81.742571 112 26249ft 285kts
23-Sep-18 08:20 37.319701 -81.648961 112 26250ft 285kts
23-Sep-18 08:21 37.296670 -81.554381 112 26251ft 285kts
23-Sep-18 08:22 37.273490 -81.459510 112 26255ft 285kts
23-Sep-18 08:23 37.250193 -81.364558 112 26261ft 285kts
23-Sep-18 08:24 37.227166 -81.271071 112 26256ft 284kts
23-Sep-18 08:25 37.203903 -81.176991 113 26255ft 283kts
23-Sep-18 08:26 37.180670 -81.083416 112 26254ft 283kts
23-Sep-18 08:27 37.157244 -80.989485 112 26259ft 283kts
23-Sep-18 08:28 37.133745 -80.895520 111 26263ft 284kts
23-Sep-18 08:29 37.110204 -80.801638 111 26265ft 284kts
23-Sep-18 08:30 37.081235 -80.712361 146 26271ft 266kts
23-Sep-18 08:31 37.020043 -80.664398 155 26265ft 260kts
23-Sep-18 08:32 36.958107 -80.619976 153 26267ft 258kts
23-Sep-18 08:33 36.896771 -80.575969 153 26252ft 258kts
23-Sep-18 08:34 36.832593 -80.530306 153 24806ft 276kts
23-Sep-18 08:35 36.770135 -80.486539 153 23414ft 275kts
23-Sep-18 08:36 36.704221 -80.440888 153 21926ft 264kts
23-Sep-18 08:37 36.642378 -80.398139 153 20441ft 252kts
23-Sep-18 08:38 36.582706 -80.356974 153 18970ft 247kts
23-Sep-18 08:39 36.523951 -80.316509 153 17490ft 244kts
23-Sep-18 08:40 36.465323 -80.276255 153 15998ft 242kts
23-Sep-18 08:41 36.413330 -80.240574 152 14664ft 240kts
23-Sep-18 08:42 36.355712 -80.201092 152 13175ft 239kts
23-Sep-18 08:43 36.298559 -80.161994 152 11689ft 237kts
23-Sep-18 08:44 36.242119 -80.123450 152 10209ft 234kts
23-Sep-18 08:45 36.196938 -80.136642 246 8946ft 234kts
23-Sep-18 08:46 36.217659 -80.196606 313 7655ft 238kts
23-Sep-18 08:47 36.262223 -80.246323 345 6269ft 238kts
23-Sep-18 08:48 36.296202 -80.210801 100 5017ft 213kts
23-Sep-18 08:49 36.267584 -80.163953 131 3765ft 202kts
23-Sep-18 08:50 36.234122 -80.117545 129 2683ft 186kts
23-Sep-18 08:51 36.202904 -80.079386 133 2941ft 126kts
23-Sep-18 08:52 36.182021 -80.053547 132 2977ft 124kts
23-Sep-18 08:53 36.157839 -80.024187 133 2517ft 115kts
23-Sep-18 08:54 36.135593 -79.996825 132 1931ft 113kts
23-Sep-18 08:55 36.113505 -79.969702 132 1333ft 111kts
23-Sep-18 08:56 36.094286 -79.945958 134 901ft 59kts
23-Sep-18 08:57 36.095441 -79.942206 46 897ft 23kts
23-Sep-18 08:58 36.099437 -79.939850 44 894ft 16kts
23-Sep-18 08:59 36.100255 -79.939371 1 893ft 0kts
23-Sep-18 09:00 36.100255 -79.939371 1 893ft 0kts

Navigation Log

Ident Type
Flight plan parsing failed, navigation log unavailable